Time;durP1;ratioP1;P1;durP2;ratioP2;P2;SDS_P1;SDS_P2;PMS_P1;PMS_P2;Temp;Humidity;BMP_temperature;BMP_pressure;BME280_temperature;BME280_humidity;BME280_pressure;Samples;Min_cycle;Max_cycle;Signal;HPM_P1;HPM_P2
2021/06/07 00:04:11;;;;;;;8.45;6.65;;;;;;;15.36;57.66;98996.20;262859;1087;22790;-71
2021/06/07 00:09:34;;;;;;;11.40;6.90;;;;;;;15.15;58.03;98984.38;262788;1087;24494;-72
2021/06/07 00:14:57;;;;;;;12.60;7.15;;;;;;;15.17;58.54;98999.16;262867;1087;23356;-71
2021/06/07 00:20:45;;;;;;;9.13;7.57;;;;;;;15.15;59.09;98993.30;262787;1087;22725;-73
2021/06/07 00:26:09;;;;;;;9.15;7.25;;;;;;;15.06;59.85;98995.16;262742;1087;22792;-72
2021/06/07 00:31:30;;;;;;;8.70;6.90;;;;;;;14.85;60.32;98998.41;262902;1087;24459;-71
2021/06/07 00:37:14;;;;;;;11.60;7.30;;;;;;;14.73;61.19;98998.19;262846;1087;24406;-73
2021/06/07 00:42:50;;;;;;;9.83;7.55;;;;;;;14.66;61.13;99000.53;262855;1087;26060;-73
2021/06/07 00:48:00;;;;;;;;;;;;;;;14.61;61.05;98996.05;262744;1086;22844;-72
2021/06/07 00:53:19;;;;;;;11.50;8.00;;;;;;;14.60;61.01;98993.67;262873;1087;24950;-72
2021/06/07 00:58:38;;;;;;;10.70;6.73;;;;;;;14.58;61.61;98998.56;262880;1085;25765;-74
2021/06/07 01:04:00;;;;;;;11.00;8.20;;;;;;;14.55;61.55;99000.00;262937;1087;22754;-71
2021/06/07 01:09:31;;;;;;;10.03;7.90;;;;;;;14.53;61.55;98991.41;262834;1087;22762;-72
2021/06/07 01:14:54;;;;;;;9.27;7.17;;;;;;;14.51;61.50;98989.03;262920;1085;22928;-73
2021/06/07 01:20:25;;;;;;;9.10;6.15;;;;;;;14.51;61.29;98986.33;262919;1086;25043;-73
2021/06/07 01:25:36;;;;;;;8.90;7.13;;;;;;;14.45;61.22;98987.58;262800;1085;24333;-72
2021/06/07 01:30:59;;;;;;;11.90;7.50;;;;;;;14.37;61.35;98983.72;262906;1086;22754;-72
2021/06/07 01:36:14;;;;;;;9.30;7.68;;;;;;;14.34;61.72;98986.22;262862;1085;22840;-72
2021/06/07 01:41:28;;;;;;;8.70;7.20;;;;;;;14.34;62.11;98980.83;262845;1086;22735;-72
2021/06/07 01:46:31;;;;;;;8.90;7.00;;;;;;;14.34;62.31;98978.13;263135;1086;22815;-71
2021/06/07 01:51:50;;;;;;;9.40;7.70;;;;;;;14.29;62.18;98984.45;262795;1087;22776;-73
2021/06/07 01:57:17;;;;;;;9.87;7.13;;;;;;;14.18;62.25;98975.82;262856;1087;22774;-71
2021/06/07 02:03:43;;;;;;;8.85;6.80;;;;;;;13.96;62.60;98989.30;262892;1087;22816;-72
2021/06/07 02:09:53;;;;;;;9.70;6.20;;;;;;;13.75;63.41;98988.97;262873;1085;22763;-72
2021/06/07 02:16:05;;;;;;;;;;;;;;;;;;;;;
2021/06/07 02:21:54;;;;;;;;;;;;;;;;;;;;;
2021/06/07 02:27:19;;;;;;;13.67;7.07;;;;;;;13.43;64.28;98990.73;262907;1087;22765;-72
2021/06/07 02:32:29;;;;;;;11.80;7.35;;;;;;;13.40;64.46;98984.05;263001;1087;22783;-73
2021/06/07 02:37:35;;;;;;;11.17;7.30;;;;;;;13.40;64.74;98978.67;262985;1085;22851;-73
2021/06/07 02:42:48;;;;;;;9.40;7.80;;;;;;;13.38;65.09;98978.19;262908;1087;22760;-72
2021/06/07 02:47:57;;;;;;;12.37;8.20;;;;;;;13.33;65.28;98976.38;262937;1086;25852;-71
2021/06/07 02:53:01;;;;;;;10.40;6.77;;;;;;;13.28;65.54;98981.86;263108;1087;22731;-73
2021/06/07 02:58:14;;;;;;;8.63;6.97;;;;;;;13.20;66.07;98977.19;262948;1086;22787;-72
2021/06/07 03:03:33;;;;;;;;;;;;;;;;;;;;;
2021/06/07 03:09:33;;;;;;;12.87;7.20;;;;;;;13.12;66.42;98983.27;262871;1087;22849;-71
2021/06/07 03:15:47;;;;;;;10.53;8.27;;;;;;;13.04;66.77;98984.78;262981;1087;22914;-72
2021/06/07 03:21:20;;;;;;;11.37;9.17;;;;;;;13.10;67.69;98990.85;263050;1087;22753;-72
2021/06/07 03:27:50;;;;;;;13.95;9.55;;;;;;;13.41;68.21;98996.42;262933;1087;24182;-72
2021/06/07 03:34:16;;;;;;;11.25;7.90;;;;;;;13.86;67.64;99012.69;262825;1087;22812;-73
2021/06/07 03:41:13;;;;;;;;;;;;;;;;;;;;;
2021/06/07 03:47:27;;;;;;;13.75;8.65;;;;;;;15.20;66.56;99003.92;262919;1087;22849;-71
2021/06/07 03:52:31;;;;;;;10.25;7.95;;;;;;;15.93;65.62;99002.63;262875;1086;22746;-74
2021/06/07 03:57:38;;;;;;;12.57;7.93;;;;;;;16.70;65.13;99007.42;262957;1085;22766;-72
2021/06/07 04:03:05;;;;;;;;;;;;;;;;;;;;;
2021/06/07 04:08:51;;;;;;;8.70;7.15;;;;;;;17.56;62.26;99007.38;262923;1086;25998;-71
2021/06/07 04:14:32;;;;;;;13.60;8.47;;;;;;;17.32;60.87;99010.69;262900;1087;22793;-74
2021/06/07 04:19:47;;;;;;;9.13;7.17;;;;;;;17.10;60.79;99015.27;262914;1087;23712;-73
2021/06/07 04:24:51;;;;;;;13.95;7.65;;;;;;;16.91;60.93;99013.77;262923;1086;25839;-72
2021/06/07 04:30:20;;;;;;;10.15;7.80;;;;;;;16.72;61.03;99021.44;262842;1086;22846;-72
2021/06/07 04:35:37;;;;;;;10.15;7.65;;;;;;;16.54;60.77;99020.69;262844;1085;22817;-72
2021/06/07 04:40:53;;;;;;;12.05;8.33;;;;;;;16.43;61.13;99021.01;262803;1087;22739;-72
2021/06/07 04:46:22;;;;;;;9.85;7.65;;;;;;;16.39;61.56;99021.98;262823;1086;23008;-74
2021/06/07 04:51:50;;;;;;;12.57;8.10;;;;;;;16.43;61.86;99022.93;262759;1087;22851;-72
2021/06/07 04:57:51;;;;;;;10.15;7.48;;;;;;;16.54;62.80;99018.77;262994;1085;22728;-72
2021/06/07 05:03:40;;;;;;;11.23;7.93;;;;;;;16.79;63.16;99027.14;262936;1087;22898;-73
2021/06/07 05:08:53;;;;;;;;;;;;;;;17.02;62.54;99022.30;263070;1086;22848;-72
2021/06/07 05:13:56;;;;;;;9.00;7.30;;;;;;;17.23;62.36;99022.34;262950;1086;21495;-73
2021/06/07 05:19:03;;;;;;;10.20;7.40;;;;;;;17.41;61.71;99024.98;262866;1087;22783;-72
2021/06/07 05:24:16;;;;;;;9.38;7.03;;;;;;;17.60;61.73;99041.59;262868;1087;25378;-74
2021/06/07 05:29:45;;;;;;;;;;;;;;;17.83;61.73;99035.06;262884;1087;26270;-72
2021/06/07 05:35:19;;;;;;;7.73;5.70;;;;;;;18.10;61.03;99041.88;263033;1087;24178;-73
2021/06/07 05:41:26;;;;;;;9.10;5.95;;;;;;;18.42;60.37;99040.31;263282;1085;24332;-72
2021/06/07 05:47:01;;;;;;;9.80;6.75;;;;;;;18.68;59.39;99044.70;263468;1087;23386;-72
2021/06/07 05:52:23;;;;;;;8.95;6.58;;;;;;;18.93;59.15;99050.20;263274;1087;22841;-72
2021/06/07 05:58:38;;;;;;;9.10;7.25;;;;;;;19.13;59.41;99043.09;263483;1086;22876;-74
2021/06/07 06:05:05;;;;;;;;;;;;;;;;;;;;;
2021/06/07 06:11:03;;;;;;;6.73;5.90;;;;;;;19.51;56.16;99047.38;264651;1086;22830;-75
2021/06/07 06:17:39;;;;;;;9.10;6.00;;;;;;;19.65;56.36;99050.52;264186;1086;22943;-72
2021/06/07 06:23:43;;;;;;;9.90;6.30;;;;;;;19.90;56.57;99050.50;263540;1086;22814;-71
2021/06/07 06:29:44;;;;;;;;;;;;;;;;;;;;;
2021/06/07 06:35:21;;;;;;;10.30;6.33;;;;;;;20.34;53.58;99061.47;263463;1086;22753;-71
2021/06/07 06:41:07;;;;;;;8.73;5.58;;;;;;;20.50;53.82;99061.50;263474;1086;27200;-71
2021/06/07 06:46:18;;;;;;;8.93;6.13;;;;;;;20.72;53.72;99064.02;263806;1087;22760;-72
2021/06/07 06:51:25;;;;;;;8.77;5.43;;;;;;;20.92;53.75;99062.99;263843;1087;23024;-71
2021/06/07 06:57:29;;;;;;;7.58;5.25;;;;;;;21.12;52.85;99074.76;263232;1085;25868;-72
2021/06/07 07:03:04;;;;;;;7.38;5.55;;;;;;;21.38;52.50;99073.45;263293;1086;22760;-71
2021/06/07 07:08:24;;;;;;;6.95;4.58;;;;;;;21.70;51.26;99085.11;263138;1087;22760;-72
2021/06/07 07:14:05;;;;;;;7.10;5.10;;;;;;;21.92;50.30;99080.11;263178;1086;22912;-72
2021/06/07 07:19:34;;;;;;;7.00;5.60;;;;;;;22.16;49.64;99089.17;263257;1085;22786;-72
2021/06/07 07:38:44;;;;;;;7.65;5.83;;;;;;;23.14;49.14;99091.81;263334;1087;26185;-72
2021/06/07 07:51:51;;;;;;;;;;;;;;;;;;;;;
2021/06/07 07:58:04;;;;;;;7.98;5.43;;;;;;;23.81;46.56;99080.35;263811;1085;22781;-72
2021/06/07 08:03:48;;;;;;;;;;;;;;;;;;;;;
2021/06/07 08:09:49;;;;;;;5.80;5.08;;;;;;;24.16;43.08;99083.93;263379;1085;24336;-72
2021/06/07 08:15:32;;;;;;;;;;;;;;;;;;;;;
2021/06/07 08:20:52;;;;;;;;;;;;;;;;;;;;;
2021/06/07 08:27:38;;;;;;;6.70;6.03;;;;;;;24.38;43.52;99087.72;263276;1085;22976;-74
2021/06/07 08:33:24;;;;;;;8.53;5.97;;;;;;;24.68;42.78;99084.14;263671;1086;22716;-73
2021/06/07 08:38:48;;;;;;;7.10;6.10;;;;;;;25.05;41.78;99097.81;263707;1087;22754;-71
2021/06/07 08:43:57;;;;;;;6.03;5.50;;;;;;;25.16;40.68;99092.42;263389;1087;25865;-71
2021/06/07 08:49:26;;;;;;;5.80;5.28;;;;;;;25.33;41.31;99096.50;263345;1085;22903;-73
2021/06/07 08:54:40;;;;;;;7.53;5.60;;;;;;;25.16;40.64;99100.65;263381;1086;22753;-71
2021/06/07 09:00:22;;;;;;;8.05;5.80;;;;;;;24.96;40.60;99094.61;263546;1087;22756;-72
2021/06/07 09:05:52;;;;;;;6.30;5.50;;;;;;;24.76;41.21;99089.34;263564;1085;26086;-70
2021/06/07 09:11:18;;;;;;;7.28;4.85;;;;;;;24.72;41.33;99085.77;263187;1085;22757;-70
2021/06/07 09:17:06;;;;;;;5.30;4.80;;;;;;;24.58;40.98;99085.58;263311;1087;22946;-71
2021/06/07 09:23:05;;;;;;;5.05;4.20;;;;;;;24.32;40.66;99087.27;263672;1085;26098;-70
2021/06/07 09:28:53;;;;;;;;;;;;;;;;;;;;;
2021/06/07 09:34:01;;;;;;;4.33;3.93;;;;;;;24.63;39.90;99081.77;263452;1087;26223;-71
2021/06/07 09:39:33;;;;;;;4.23;3.88;;;;;;;24.91;39.83;99083.98;263454;1085;22807;-71
2021/06/07 09:45:47;;;;;;;;;;;;;;;;;;;;;
2021/06/07 09:51:44;;;;;;;4.98;4.58;;;;;;;24.96;39.15;99071.88;263235;1087;22815;-70
2021/06/07 09:57:13;;;;;;;4.78;4.30;;;;;;;24.90;39.12;99080.47;263294;1087;25721;-70
2021/06/07 10:02:23;;;;;;;5.13;4.55;;;;;;;24.69;39.20;99070.07;263316;1090;22901;-71
2021/06/07 10:07:30;;;;;;;5.93;5.25;;;;;;;24.94;39.15;99072.27;263388;1087;25982;-70
2021/06/07 10:13:10;;;;;;;5.60;5.10;;;;;;;25.26;39.25;99075.27;263360;1087;22773;-71
2021/06/07 10:18:30;;;;;;;5.20;4.70;;;;;;;25.58;38.80;99073.96;263461;1086;22825;-71
2021/06/07 10:24:00;;;;;;;5.30;4.80;;;;;;;26.09;38.19;99075.02;263227;1087;22766;-71
2021/06/07 10:29:09;;;;;;;5.43;4.60;;;;;;;26.46;37.65;99072.02;262396;1086;23033;-74
2021/06/07 10:35:02;;;;;;;7.40;5.40;;;;;;;26.60;37.42;99062.25;263606;1085;22763;-72
2021/06/07 10:48:40;;;;;;;5.10;4.70;;;;;;;26.43;35.33;99067.30;263108;1087;22884;-71
2021/06/07 10:55:04;;;;;;;;;;;;;;;;;;;;;
2021/06/07 11:01:21;;;;;;;4.50;4.20;;;;;;;26.72;35.00;99039.93;263399;1087;22860;-72
2021/06/07 11:07:07;;;;;;;6.03;5.43;;;;;;;26.81;35.47;99051.30;262853;1087;25858;-71
2021/06/07 11:20:02;;;;;;;4.75;4.35;;;;;;;26.43;34.43;99037.09;263112;1086;22828;-71
2021/06/07 11:25:54;;;;;;;4.90;4.20;;;;;;;26.70;33.75;99025.78;263218;1087;22789;-70
2021/06/07 11:31:57;;;;;;;4.45;4.15;;;;;;;26.26;33.52;99024.09;263168;1087;22793;-71
2021/06/07 11:38:44;;;;;;;4.38;4.08;;;;;;;25.79;34.06;99019.20;263145;1087;22773;-71
2021/06/07 11:44:50;;;;;;;4.63;4.25;;;;;;;26.01;34.88;99021.23;263127;1087;22827;-71
2021/06/07 11:51:42;;;;;;;4.40;4.00;;;;;;;26.20;34.24;99015.45;263075;1087;22789;-69
2021/06/07 11:58:21;;;;;;;;;;;;;;;;;;;;;
2021/06/07 12:10:17;;;;;;;;;;;;;;;;;;;;;
2021/06/07 12:23:54;;;;;;;4.85;3.88;;;;;;;26.31;31.46;99007.25;263058;1086;22921;-70
2021/06/07 12:30:09;;;;;;;4.13;3.50;;;;;;;26.47;31.37;98996.69;263063;1086;22769;-69
2021/06/07 12:36:03;;;;;;;;;;;;;;;;;;;;;
2021/06/07 12:41:46;;;;;;;8.78;4.55;;;;;;;26.42;32.03;98983.34;263123;1087;22802;-72
2021/06/07 12:47:47;;;;;;;5.15;3.95;;;;;;;26.78;32.45;98983.39;263149;1087;24361;-72
2021/06/07 12:53:04;;;;;;;4.48;4.08;;;;;;;27.01;31.74;98989.67;263563;1085;22793;-72
2021/06/07 12:58:45;;;;;;;4.33;3.95;;;;;;;27.11;31.75;98978.66;263479;1087;22893;-71
2021/06/07 13:04:51;;;;;;;4.10;3.80;;;;;;;27.11;31.21;98967.67;263340;1087;25855;-72
2021/06/07 13:10:24;;;;;;;4.05;3.75;;;;;;;26.99;31.44;98981.81;263511;1087;24288;-71
2021/06/07 13:16:40;;;;;;;;;;;;;;;;;;;;;
2021/06/07 13:22:24;;;;;;;4.30;3.90;;;;;;;26.94;31.00;98973.96;263313;1086;22808;-72
2021/06/07 13:27:51;;;;;;;4.18;3.78;;;;;;;27.04;30.51;98966.88;263194;1086;22747;-71
2021/06/07 13:33:03;;;;;;;4.37;3.97;;;;;;;27.12;29.72;98969.22;263376;1086;22604;-71
2021/06/07 13:38:12;;;;;;;;;;;;;;;27.07;29.62;98960.59;263428;1087;24287;-72
2021/06/07 13:43:21;;;;;;;3.70;3.40;;;;;;;27.12;29.57;98962.95;263666;1087;21944;-72
2021/06/07 13:49:40;;;;;;;4.00;3.70;;;;;;;27.23;29.38;98952.70;263680;1087;22721;-72
2021/06/07 13:55:15;;;;;;;3.73;3.43;;;;;;;27.37;30.25;98951.14;263476;1087;22766;-72
2021/06/07 14:00:51;;;;;;;3.85;3.55;;;;;;;27.48;29.55;98954.64;263626;1087;22793;-72
2021/06/07 14:06:59;;;;;;;3.80;3.50;;;;;;;27.51;29.50;98939.28;264527;1087;22799;-73
2021/06/07 14:12:27;;;;;;;;;;;;;;;;;;;;;
2021/06/07 14:19:05;;;;;;;;;;;;;;;;;;;;;
2021/06/07 14:24:57;;;;;;;4.80;3.40;;;;;;;27.49;28.99;98931.42;262984;1087;22760;-74
2021/06/07 14:31:04;;;;;;;3.83;3.53;;;;;;;27.41;28.91;98918.91;263181;1087;24165;-73
2021/06/07 14:36:24;;;;;;;4.03;3.63;;;;;;;27.41;29.39;98916.93;263211;1087;22857;-73
2021/06/07 14:42:30;;;;;;;4.50;3.78;;;;;;;27.27;29.54;98914.98;263092;1087;22820;-73
2021/06/07 14:54:29;;;;;;;3.80;3.50;;;;;;;27.24;29.15;98902.04;263059;1087;22787;-74
2021/06/07 15:00:18;;;;;;;;;;;;;;;;;;;;;
2021/06/07 15:05:42;;;;;;;4.10;3.70;;;;;;;27.23;29.15;98886.72;263238;1087;22760;-74
2021/06/07 15:11:13;;;;;;;3.35;3.15;;;;;;;27.26;29.59;98883.16;263071;1086;22775;-75
2021/06/07 15:16:17;;;;;;;3.65;3.35;;;;;;;27.24;29.32;98881.98;263201;1085;24797;-74
2021/06/07 15:21:36;;;;;;;3.50;3.20;;;;;;;27.30;29.01;98880.41;263061;1087;22789;-73
2021/06/07 15:27:05;;;;;;;3.50;3.30;;;;;;;27.22;28.63;98868.64;263226;1087;22762;-74
2021/06/07 15:40:28;;;;;;;;;;;;;;;;;;;;;
2021/06/07 15:46:15;;;;;;;3.75;3.45;;;;;;;27.06;28.17;98855.35;263019;1087;22777;-74
2021/06/07 15:51:52;;;;;;;;;;;;;;;;;;;;;
2021/06/07 16:04:24;;;;;;;4.13;3.83;;;;;;;26.91;28.76;98842.84;263102;1086;22805;-73
2021/06/07 16:16:58;;;;;;;4.50;4.10;;;;;;;26.80;29.72;98832.64;262926;1086;23001;-74
2021/06/07 16:22:45;;;;;;;4.95;4.13;;;;;;;26.77;31.01;98833.44;263111;1085;22762;-74
2021/06/07 16:27:57;;;;;;;4.00;3.70;;;;;;;26.73;31.36;98829.14;263037;1087;26994;-73
2021/06/07 16:33:11;;;;;;;4.25;3.83;;;;;;;26.70;31.67;98832.69;262894;1086;22851;-75
2021/06/07 16:39:06;;;;;;;4.45;4.10;;;;;;;26.67;31.00;98827.93;262986;1087;22794;-73
2021/06/07 16:44:46;;;;;;;4.60;4.20;;;;;;;26.67;30.97;98833.42;262872;1087;22780;-73
2021/06/07 16:49:55;;;;;;;4.30;3.90;;;;;;;26.63;30.87;98830.70;262890;1087;22771;-74
2021/06/07 16:56:10;;;;;;;5.00;4.45;;;;;;;26.56;31.70;98833.47;263152;1087;22847;-74
2021/06/07 17:01:33;;;;;;;4.43;4.13;;;;;;;26.55;31.33;98824.42;263011;1086;25829;-73
2021/06/07 17:13:38;;;;;;;4.33;4.03;;;;;;;28.68;31.93;98832.33;262870;1087;22757;-74
2021/06/07 17:25:05;;;;;;;5.47;4.93;;;;;;;31.07;30.29;98824.05;262934;1087;22793;-74
2021/06/07 17:30:23;;;;;;;4.63;4.23;;;;;;;31.86;29.82;98832.66;262874;1086;22786;-74
2021/06/07 17:36:13;;;;;;;;;;;;;;;;;;;;;
2021/06/07 17:42:51;;;;;;;6.10;4.80;;;;;;;31.20;28.59;98832.48;262731;1085;27103;-74
2021/06/07 17:48:32;;;;;;;5.48;5.08;;;;;;;30.01;29.68;98837.34;262934;1087;22745;-73
2021/06/07 17:54:20;;;;;;;;;;;;;;;;;;;;;
2021/06/07 18:00:54;;;;;;;6.18;5.55;;;;;;;27.28;32.14;98841.52;262970;1087;22752;-73
2021/06/07 18:06:55;;;;;;;5.85;5.35;;;;;;;26.25;33.60;98841.34;262814;1087;22757;-73
2021/06/07 18:12:53;;;;;;;;;;;;;;;;;;;;;
2021/06/07 18:18:39;;;;;;;7.48;6.00;;;;;;;24.82;35.90;98845.97;262933;1086;22980;-74
2021/06/07 18:30:52;;;;;;;6.80;6.10;;;;;;;23.71;37.69;98860.27;262749;1086;27532;-72
2021/06/07 18:37:39;;;;;;;6.43;5.83;;;;;;;23.21;38.89;98854.20;262830;1087;22797;-74
2021/06/07 18:44:22;;;;;;;;;;;;;;;;;;;;;
2021/06/07 18:51:28;;;;;;;5.78;5.18;;;;;;;22.31;41.32;98869.23;262912;1087;22907;-73
2021/06/07 18:57:26;;;;;;;;;;;;;;;;;;;;;
2021/06/07 19:02:52;;;;;;;5.40;4.90;;;;;;;21.66;42.53;98871.61;263065;1087;22768;-74
2021/06/07 19:09:44;;;;;;;;;;;;;;;;;;;;;
2021/06/07 19:16:25;;;;;;;;;;;;;;;;;;;;;
2021/06/07 19:29:55;;;;;;;7.80;5.35;;;;;;;20.53;45.05;98909.56;262853;1087;22765;-74
2021/06/07 19:36:59;;;;;;;7.08;5.45;;;;;;;20.27;45.45;98905.42;262598;1087;22817;-74
2021/06/07 19:43:34;;;;;;;;;;;;;;;;;;;;;
2021/06/07 19:49:15;;;;;;;5.73;5.20;;;;;;;19.83;47.17;98914.39;262693;1086;25830;-74
2021/06/07 19:54:39;;;;;;;6.00;5.40;;;;;;;19.66;47.38;98921.66;262767;1087;24346;-74
2021/06/07 20:00:06;;;;;;;6.77;6.03;;;;;;;19.51;47.92;98919.68;262791;1087;22778;-74
2021/06/07 20:05:39;;;;;;;6.67;5.47;;;;;;;19.36;48.79;98921.19;262900;1087;22962;-74
2021/06/07 20:11:52;;;;;;;8.40;5.15;;;;;;;19.21;49.03;98917.27;262769;1087;22806;-74
2021/06/07 20:17:38;;;;;;;6.75;6.05;;;;;;;19.08;49.37;98918.41;262757;1087;23008;-73
2021/06/07 20:23:21;;;;;;;6.50;5.60;;;;;;;18.93;50.31;98931.55;262774;1087;25371;-74
2021/06/07 20:29:08;;;;;;;8.90;5.85;;;;;;;18.83;51.52;98934.70;262854;1087;25839;-73
2021/06/07 20:42:03;;;;;;;8.10;6.83;;;;;;;18.67;53.31;98936.50;262743;1087;23211;-73
2021/06/07 20:47:59;;;;;;;9.00;7.40;;;;;;;18.63;53.73;98939.91;262815;1087;26267;-74
2021/06/07 20:53:53;;;;;;;10.00;7.70;;;;;;;18.58;54.97;98940.11;262639;1087;22745;-73
2021/06/07 21:00:09;;;;;;;;;;;;;;;;;;;;;
2021/06/07 21:13:24;;;;;;;9.45;7.25;;;;;;;18.27;55.91;98946.84;262766;1087;22744;-73
2021/06/07 21:19:06;;;;;;;9.15;7.00;;;;;;;18.30;56.66;98946.16;262705;1087;26232;-74
2021/06/07 21:31:54;;;;;;;;;;;;;;;;;;;;;
2021/06/07 21:38:08;;;;;;;9.45;7.80;;;;;;;18.44;57.00;98945.08;262701;1087;23583;-73
2021/06/07 21:44:28;;;;;;;13.05;8.95;;;;;;;18.32;56.81;98942.33;262796;1087;22771;-74
2021/06/07 22:05:06;;;;;;;9.55;7.60;;;;;;;17.73;57.61;98949.56;262488;1087;22806;-74
2021/06/07 22:11:51;;;;;;;;;;;;;;;;;;;;;
2021/06/07 22:18:03;;;;;;;11.80;8.80;;;;;;;17.54;59.17;98939.96;262818;1085;27533;-73
2021/06/07 22:24:51;;;;;;;;;;;;;;;;;;;;;
2021/06/07 22:38:32;;;;;;;11.60;9.10;;;;;;;17.15;58.96;98939.27;262584;1087;22820;-74
2021/06/07 22:51:42;;;;;;;;;;;;;;;;;;;;;
2021/06/07 22:58:45;;;;;;;17.60;12.05;;;;;;;17.00;60.20;98934.43;262569;1087;24276;-74
2021/06/07 23:12:26;;;;;;;13.50;8.95;;;;;;;16.87;62.11;98937.03;262983;1087;22857;-74
2021/06/07 23:26:04;;;;;;;12.50;10.10;;;;;;;16.82;63.65;98923.69;262679;1087;22784;-73
2021/06/07 23:32:29;;;;;;;13.37;9.83;;;;;;;16.89;63.44;98923.21;262663;1086;22798;-74
2021/06/07 23:39:10;;;;;;;;;;;;;;;;;;;;;
2021/06/07 23:46:03;;;;;;;;;;;;;;;;;;;;;
2021/06/07 23:53:01;;;;;;;;;;;;;;;;;;;;;
2021/06/07 23:59:33;;;;;;;14.65;11.80;;;;;;;16.65;64.53;98926.45;262675;1087;22817;-73
